createdAt,value
2022-09-07T00:01:01.416Z,20.57
2022-09-07T00:03:28.431Z,20.56
2022-09-07T00:05:55.207Z,20.58
2022-09-07T00:08:23.688Z,20.72
2022-09-07T00:10:54.781Z,20.85
2022-09-07T00:13:22.379Z,20.93
2022-09-07T00:15:49.793Z,20.88
2022-09-07T00:18:16.541Z,20.98
2022-09-07T00:20:43.207Z,21.08
2022-09-07T00:23:09.949Z,21.01
2022-09-07T00:25:40.966Z,21.10
2022-09-07T00:28:08.461Z,21.16
2022-09-07T00:30:35.295Z,21.13
2022-09-07T00:33:01.882Z,21.04
2022-09-07T00:35:28.631Z,21.01
2022-09-07T00:37:55.168Z,21.00
2022-09-07T00:40:21.709Z,20.78
2022-09-07T00:42:48.228Z,20.88
2022-09-07T00:45:20.058Z,20.86
2022-09-07T00:48:17.060Z,21.00
2022-09-07T00:50:47.013Z,21.09
2022-09-07T00:53:31.968Z,21.05
2022-09-07T00:55:59.190Z,21.17
2022-09-07T00:58:26.521Z,21.20
2022-09-07T01:00:53.132Z,21.15
2022-09-07T01:03:26.243Z,21.10
2022-09-07T01:05:58.738Z,20.99
2022-09-07T01:08:25.370Z,20.82
2022-09-07T01:10:51.992Z,20.73
2022-09-07T01:13:18.495Z,20.76
2022-09-07T01:16:23.435Z,20.63
2022-09-07T01:18:53.210Z,20.62
2022-09-07T01:21:43.832Z,20.62
2022-09-07T01:24:25.961Z,20.69
2022-09-07T01:26:58.625Z,20.73
2022-09-07T01:29:49.937Z,20.72
2022-09-07T01:32:39.088Z,20.68
2022-09-07T01:35:23.032Z,20.62
2022-09-07T01:37:58.689Z,20.63
2022-09-07T01:40:34.129Z,20.77
2022-09-07T01:43:05.340Z,20.80
2022-09-07T01:45:35.629Z,20.76
2022-09-07T01:48:06.171Z,20.91
2022-09-07T01:50:40.872Z,20.94
2022-09-07T01:53:19.669Z,21.02
2022-09-07T01:55:48.704Z,21.06
2022-09-07T01:58:43.579Z,21.15
2022-09-07T02:01:28.987Z,21.13
2022-09-07T02:04:00.012Z,21.16
2022-09-07T02:06:41.663Z,21.21
2022-09-07T02:09:17.307Z,21.19
2022-09-07T02:11:46.691Z,21.23
2022-09-07T02:14:20.405Z,21.24
2022-09-07T02:17:07.047Z,21.35
2022-09-07T02:19:47.112Z,21.27
2022-09-07T02:22:16.454Z,21.30
2022-09-07T02:24:47.040Z,21.19
2022-09-07T02:27:18.081Z,21.28
2022-09-07T02:29:44.804Z,21.30
2022-09-07T02:32:11.525Z,21.34
2022-09-07T02:34:38.225Z,21.39
2022-09-07T02:37:06.166Z,21.32
2022-09-07T02:39:33.612Z,21.27
2022-09-07T02:42:00.463Z,21.21
2022-09-07T02:44:31.507Z,21.15
2022-09-07T02:47:14.923Z,21.02
2022-09-07T02:50:04.335Z,20.99
2022-09-07T02:52:49.689Z,20.90
2022-09-07T02:55:22.411Z,20.99
2022-09-07T02:58:08.266Z,20.88
2022-09-07T03:00:40.775Z,20.87
2022-09-07T03:03:23.655Z,20.78
2022-09-07T03:05:59.836Z,20.80
2022-09-07T03:08:34.813Z,20.66
2022-09-07T03:11:01.428Z,20.65
2022-09-07T03:13:29.377Z,20.54
2022-09-07T03:15:56.717Z,20.64
2022-09-07T03:18:24.845Z,20.54
2022-09-07T03:20:51.536Z,20.48
2022-09-07T03:23:18.168Z,20.55
2022-09-07T03:25:45.416Z,20.58
2022-09-07T03:28:12.164Z,20.60
2022-09-07T03:30:44.052Z,20.65
2022-09-07T03:33:10.967Z,20.57
2022-09-07T03:35:37.655Z,20.51
2022-09-07T03:38:04.344Z,20.46
2022-09-07T03:40:30.991Z,20.40
2022-09-07T03:42:57.617Z,20.32
2022-09-07T03:45:24.271Z,20.22
2022-09-07T03:47:51.183Z,20.17
2022-09-07T03:50:17.922Z,20.17
2022-09-07T03:52:44.599Z,20.06
2022-09-07T03:55:11.347Z,19.98
2022-09-07T03:57:38.110Z,19.93
2022-09-07T04:00:05.624Z,19.88
2022-09-07T04:02:39.195Z,19.85
2022-09-07T04:05:06.199Z,19.74
2022-09-07T04:07:33.094Z,19.54
2022-09-07T04:09:59.668Z,19.62
2022-09-07T04:12:26.179Z,19.65
2022-09-07T04:14:52.743Z,19.55
2022-09-07T04:17:19.492Z,19.44
2022-09-07T04:19:46.129Z,19.51
2022-09-07T04:22:12.748Z,19.59
2022-09-07T04:24:39.291Z,19.69
2022-09-07T04:27:05.924Z,19.61
2022-09-07T04:29:32.987Z,19.60
2022-09-07T04:31:59.676Z,19.57
2022-09-07T04:34:26.307Z,19.67
2022-09-07T04:36:52.963Z,19.67
2022-09-07T04:39:19.699Z,19.69
2022-09-07T04:41:46.249Z,19.56
2022-09-07T04:44:16.748Z,19.74
2022-09-07T04:46:43.745Z,19.74
2022-09-07T04:49:11.985Z,19.70
2022-09-07T04:51:39.468Z,19.71
2022-09-07T04:54:06.952Z,19.65
2022-09-07T04:56:33.642Z,19.67
2022-09-07T04:59:03.624Z,19.67
2022-09-07T05:01:30.337Z,19.67
2022-09-07T05:04:00.099Z,19.71
2022-09-07T05:06:27.507Z,19.69
2022-09-07T05:08:54.551Z,19.74
2022-09-07T05:11:28.341Z,19.74
2022-09-07T05:13:56.377Z,19.78
2022-09-07T05:16:23.657Z,19.58
2022-09-07T05:18:51.687Z,19.77
2022-09-07T05:21:21.911Z,19.77
2022-09-07T05:23:50.552Z,19.93
2022-09-07T05:26:17.538Z,19.92
2022-09-07T05:28:44.325Z,20.00
2022-09-07T05:36:37.029Z,20.01
2022-09-07T05:39:04.587Z,20.17
2022-09-07T05:41:31.331Z,20.19
2022-09-07T05:46:44.832Z,20.39
2022-09-07T05:49:11.411Z,20.48
2022-09-07T05:51:38.528Z,20.60
2022-09-07T05:54:05.216Z,20.73
2022-09-07T05:56:35.240Z,20.75
2022-09-07T05:59:01.827Z,20.86
2022-09-07T06:01:28.434Z,21.06
2022-09-07T06:03:55.005Z,21.21
2022-09-07T06:06:21.707Z,21.26
2022-09-07T06:08:52.737Z,21.39
2022-09-07T06:11:24.179Z,21.46
2022-09-07T06:13:52.049Z,21.61
2022-09-07T06:16:19.727Z,21.72
2022-09-07T06:18:48.187Z,21.75
2022-09-07T06:21:16.602Z,21.81
2022-09-07T06:23:43.768Z,21.91
2022-09-07T06:26:11.100Z,21.87
2022-09-07T06:28:40.122Z,21.91
2022-09-07T06:31:11.407Z,21.77
2022-09-07T06:33:38.013Z,22.19
2022-09-07T06:36:07.197Z,22.35
2022-09-07T06:38:36.945Z,22.52
2022-09-07T06:43:57.061Z,22.91
2022-09-07T06:49:11.368Z,23.53
2022-09-07T06:51:38.616Z,23.65
2022-09-07T06:56:52.596Z,24.25
2022-09-07T06:59:19.333Z,24.01
2022-09-07T07:01:45.938Z,24.26
2022-09-07T07:04:13.278Z,23.94
2022-09-07T07:06:40.048Z,24.29
2022-09-07T07:09:08.406Z,24.08
2022-09-07T07:11:37.075Z,23.99
2022-09-07T07:14:04.206Z,23.96
2022-09-07T07:16:31.127Z,23.65
2022-09-07T07:18:57.999Z,23.69
2022-09-07T07:21:24.644Z,23.80
2022-09-07T07:23:52.850Z,23.69
2022-09-07T07:26:21.481Z,23.78
2022-09-07T07:31:25.738Z,23.80
2022-09-07T07:33:53.397Z,23.83
2022-09-07T07:36:22.329Z,23.43
2022-09-07T07:44:18.134Z,23.70
2022-09-07T07:46:50.370Z,23.64
2022-09-07T07:49:20.240Z,23.74
2022-09-07T07:54:36.719Z,24.01
2022-09-07T07:57:05.187Z,23.92
2022-09-07T07:59:31.827Z,24.23
2022-09-07T08:02:04.414Z,24.33
2022-09-07T08:04:40.304Z,24.40
2022-09-07T08:07:10.632Z,24.41
2022-09-07T08:09:42.433Z,24.55
2022-09-07T08:12:11.188Z,24.94
2022-09-07T08:14:41.896Z,24.90
2022-09-07T08:17:10.605Z,25.02
2022-09-07T08:19:37.705Z,25.23
2022-09-07T08:22:04.341Z,25.19
2022-09-07T08:24:31.961Z,25.05
2022-09-07T08:26:58.530Z,25.18
2022-09-07T08:29:25.264Z,25.30
2022-09-07T08:31:51.832Z,24.94
2022-09-07T08:34:18.452Z,25.51
2022-09-07T08:36:45.087Z,25.84
2022-09-07T08:39:11.694Z,25.82
2022-09-07T08:41:51.534Z,25.63
2022-09-07T08:44:37.419Z,26.11
2022-09-07T08:47:29.704Z,25.86
2022-09-07T08:50:02.597Z,25.99
2022-09-07T08:52:40.241Z,26.28
2022-09-07T08:55:23.233Z,26.68
2022-09-07T08:57:56.049Z,26.93
2022-09-07T09:00:22.712Z,26.62
2022-09-07T09:05:47.562Z,26.11
2022-09-07T09:08:40.324Z,26.60
2022-09-07T09:11:12.326Z,26.41
2022-09-07T09:13:56.044Z,26.66
2022-09-07T09:16:24.169Z,26.98
2022-09-07T09:19:00.700Z,27.17
2022-09-07T09:21:27.616Z,26.80
2022-09-07T09:24:00.727Z,26.68
2022-09-07T09:26:31.666Z,26.68
2022-09-07T09:28:58.663Z,26.62
2022-09-07T09:31:33.151Z,27.00
2022-09-07T09:34:05.762Z,26.97
2022-09-07T09:36:53.066Z,27.10
2022-09-07T09:39:34.048Z,26.88
2022-09-07T09:42:21.575Z,26.85
2022-09-07T09:44:48.148Z,27.30
2022-09-07T09:47:31.671Z,27.23
2022-09-07T09:50:02.137Z,27.52
2022-09-07T09:52:38.118Z,27.62
2022-09-07T09:55:34.339Z,27.27
2022-09-07T10:03:56.455Z,27.46
2022-09-07T10:06:24.851Z,27.47
2022-09-07T10:09:02.228Z,27.47
2022-09-07T10:14:42.186Z,27.37
2022-09-07T10:17:25.084Z,27.16
2022-09-07T10:19:52.637Z,27.53
2022-09-07T10:22:38.607Z,27.19
2022-09-07T10:25:28.336Z,27.49
2022-09-07T10:28:05.657Z,27.63
2022-09-07T10:30:39.059Z,27.60
2022-09-07T10:33:13.227Z,27.53
2022-09-07T10:36:01.329Z,27.66
2022-09-07T10:38:30.880Z,27.86
2022-09-07T10:41:07.297Z,28.13
2022-09-07T10:43:49.779Z,28.14
2022-09-07T10:50:21.952Z,28.40
2022-09-07T10:52:35.614Z,27.86
2022-09-07T10:55:27.999Z,27.94
2022-09-07T10:57:54.676Z,28.13
2022-09-07T11:00:22.682Z,27.23
2022-09-07T11:05:58.534Z,27.21
2022-09-07T11:12:04.180Z,26.82
2022-09-07T11:14:37.972Z,26.87
2022-09-07T11:17:13.174Z,27.08
2022-09-07T11:20:03.855Z,27.49
2022-09-07T11:22:34.080Z,27.56
2022-09-07T11:25:30.243Z,27.54
2022-09-07T11:28:04.111Z,28.07
2022-09-07T11:30:35.780Z,28.32
2022-09-07T11:33:05.217Z,28.26
2022-09-07T11:35:37.748Z,28.88
2022-09-07T11:38:13.375Z,28.77
2022-09-07T11:40:46.982Z,28.62
2022-09-07T11:43:22.319Z,28.61
2022-09-07T11:45:53.713Z,28.90
2022-09-07T11:48:31.135Z,29.08
2022-09-07T11:51:22.116Z,29.01
2022-09-07T11:53:57.270Z,28.80
2022-09-07T11:56:29.709Z,28.74
2022-09-07T11:59:02.316Z,29.06
2022-09-07T12:01:28.776Z,29.55
2022-09-07T12:04:32.512Z,29.49
2022-09-07T12:07:07.083Z,29.47
2022-09-07T12:09:52.299Z,29.60
2022-09-07T12:12:30.971Z,29.75
2022-09-07T12:15:09.572Z,29.91
2022-09-07T12:17:58.234Z,29.33
2022-09-07T12:20:44.199Z,29.29
2022-09-07T12:23:16.727Z,28.84
2022-09-07T12:25:45.205Z,28.72
2022-09-07T12:28:37.690Z,28.68
2022-09-07T12:31:06.655Z,28.56
2022-09-07T12:33:38.033Z,28.85
2022-09-07T12:36:27.592Z,28.87
2022-09-07T12:39:25.110Z,28.87
2022-09-07T12:44:40.825Z,28.42
2022-09-07T12:47:12.425Z,28.87
2022-09-07T12:49:54.907Z,28.89
2022-09-07T12:52:45.215Z,29.00
2022-09-07T12:55:27.935Z,28.94
2022-09-07T12:58:01.146Z,28.86
2022-09-07T13:00:35.774Z,28.87
2022-09-07T13:09:31.494Z,29.44
2022-09-07T13:11:58.499Z,29.72
2022-09-07T13:14:26.842Z,29.18
2022-09-07T13:17:29.132Z,29.79
2022-09-07T13:19:55.914Z,29.28
2022-09-07T13:22:42.802Z,28.86
2022-09-07T13:25:19.159Z,29.22
2022-09-07T13:27:59.755Z,29.48
2022-09-07T13:30:53.510Z,29.50
2022-09-07T13:33:29.588Z,29.84
2022-09-07T13:36:00.202Z,29.86
2022-09-07T13:38:28.518Z,29.73
2022-09-07T13:41:00.061Z,29.57
2022-09-07T13:43:26.739Z,29.66
2022-09-07T13:45:53.289Z,29.62
2022-09-07T13:48:25.327Z,29.57
2022-09-07T13:51:13.723Z,29.62
2022-09-07T13:53:59.839Z,29.23
2022-09-07T13:56:38.843Z,29.42
2022-09-07T13:59:33.725Z,29.17
2022-09-07T14:02:00.531Z,29.40
2022-09-07T14:04:37.852Z,29.24
2022-09-07T14:07:15.295Z,29.61
2022-09-07T14:09:42.145Z,29.50
2022-09-07T14:12:17.060Z,29.50
2022-09-07T14:14:43.607Z,29.30
2022-09-07T14:17:18.927Z,28.94
2022-09-07T14:19:49.978Z,29.08
2022-09-07T14:22:23.244Z,29.31
2022-09-07T14:24:54.716Z,29.41
2022-09-07T14:27:25.369Z,29.83
2022-09-07T14:29:52.524Z,29.71
2022-09-07T14:32:23.267Z,29.51
2022-09-07T14:34:50.186Z,29.44
2022-09-07T14:37:17.948Z,29.32
2022-09-07T14:39:49.186Z,29.34
2022-09-07T14:42:22.873Z,29.49
2022-09-07T14:44:50.179Z,29.52
2022-09-07T14:47:43.555Z,29.69
2022-09-07T14:50:38.977Z,29.60
2022-09-07T14:56:08.220Z,29.17
2022-09-07T14:58:35.057Z,29.22
2022-09-07T15:04:02.025Z,29.16
2022-09-07T15:09:36.505Z,29.23
2022-09-07T15:12:37.827Z,29.48
2022-09-07T15:15:29.805Z,29.35
2022-09-07T15:18:03.127Z,29.15
2022-09-07T15:20:40.995Z,29.12
2022-09-07T15:23:12.791Z,29.04
2022-09-07T15:25:40.976Z,28.86
2022-09-07T15:34:02.238Z,28.87
2022-09-07T15:36:29.028Z,28.59
2022-09-07T15:39:03.552Z,28.53
2022-09-07T15:41:30.411Z,28.39
2022-09-07T15:43:57.168Z,28.41
2022-09-07T15:46:25.076Z,28.49
2022-09-07T15:48:55.620Z,28.40
2022-09-07T15:54:14.175Z,28.06
2022-09-07T15:59:37.798Z,27.99
2022-09-07T16:03:04.757Z,27.97
2022-09-07T16:04:51.649Z,28.03
2022-09-07T16:07:20.808Z,27.95
2022-09-07T16:09:48.083Z,28.35
2022-09-07T16:15:00.997Z,28.30
2022-09-07T16:17:34.709Z,28.08
2022-09-07T16:20:04.086Z,28.23
2022-09-07T16:25:17.264Z,27.91
2022-09-07T16:27:43.789Z,27.87
2022-09-07T16:30:10.809Z,27.89
2022-09-07T16:32:44.963Z,28.05
2022-09-07T16:35:11.962Z,28.02
2022-09-07T16:38:43.662Z,28.07
2022-09-07T16:40:25.459Z,27.92
2022-09-07T16:42:51.972Z,27.79
2022-09-07T16:48:05.142Z,27.38
2022-09-07T16:50:31.690Z,27.44
2022-09-07T16:52:58.205Z,27.21
2022-09-07T16:55:24.766Z,27.38
2022-09-07T17:00:38.445Z,27.10
2022-09-07T17:03:05.266Z,27.12
2022-09-07T17:05:31.831Z,27.02
2022-09-07T17:07:59.319Z,26.89
2022-09-07T17:10:26.127Z,26.55
2022-09-07T17:12:52.664Z,26.71
2022-09-07T17:15:19.272Z,26.28
2022-09-07T17:17:45.783Z,26.26
2022-09-07T17:20:12.350Z,26.44
2022-09-07T17:22:38.857Z,26.48
2022-09-07T17:25:06.007Z,26.31
2022-09-07T17:27:32.573Z,26.16
2022-09-07T17:29:59.147Z,26.04
2022-09-07T17:32:28.484Z,26.02
2022-09-07T17:34:55.770Z,26.03
2022-09-07T17:37:22.291Z,25.95
2022-09-07T17:39:49.032Z,25.71
2022-09-07T17:42:15.704Z,25.73
2022-09-07T17:44:42.279Z,25.30
2022-09-07T17:47:09.025Z,25.06
2022-09-07T17:49:35.766Z,24.78
2022-09-07T17:52:02.675Z,24.75
2022-09-07T17:54:29.324Z,24.62
2022-09-07T17:56:55.819Z,24.50
2022-09-07T18:02:10.910Z,24.92
2022-09-07T18:04:37.508Z,24.91
2022-09-07T18:07:04.571Z,24.85
2022-09-07T18:09:31.145Z,24.88
2022-09-07T18:11:57.794Z,24.89
2022-09-07T18:14:24.447Z,24.83
2022-09-07T18:16:51.220Z,24.85
2022-09-07T18:19:18.882Z,25.05
2022-09-07T18:21:46.119Z,24.80
2022-09-07T18:24:18.123Z,24.94
2022-09-07T18:26:50.663Z,24.74
2022-09-07T18:29:37.422Z,24.95
2022-09-07T18:32:08.636Z,24.57
2022-09-07T18:34:36.540Z,24.43
2022-09-07T18:37:03.313Z,24.09
2022-09-07T18:39:29.948Z,23.26
2022-09-07T18:41:56.863Z,22.92
2022-09-07T18:47:21.058Z,22.22
2022-09-07T18:49:49.950Z,21.99
2022-09-07T18:55:04.787Z,21.73
2022-09-07T18:57:31.310Z,21.63
2022-09-07T18:59:57.870Z,21.67
2022-09-07T19:02:24.575Z,21.53
2022-09-07T19:07:37.648Z,21.52
2022-09-07T19:10:06.735Z,21.66
2022-09-07T19:12:33.281Z,21.62
2022-09-07T19:14:59.786Z,21.86
2022-09-07T19:17:26.349Z,21.80
2022-09-07T19:19:52.896Z,21.65
2022-09-07T19:22:19.494Z,21.82
2022-09-07T19:24:46.212Z,22.05
2022-09-07T19:27:12.798Z,22.04
2022-09-07T19:29:39.441Z,22.14
2022-09-07T19:32:06.916Z,22.28
2022-09-07T19:34:38.082Z,22.31
2022-09-07T19:37:05.854Z,22.22
2022-09-07T19:39:32.914Z,22.29
2022-09-07T19:42:00.079Z,22.27
2022-09-07T19:44:26.743Z,22.31
2022-09-07T19:46:53.694Z,22.34
2022-09-07T19:49:20.335Z,22.36
2022-09-07T19:51:49.400Z,22.30
2022-09-07T19:54:16.009Z,22.29
2022-09-07T19:56:44.730Z,22.25
2022-09-07T19:59:12.405Z,22.28
2022-09-07T20:01:40.598Z,22.25
2022-09-07T20:04:10.647Z,22.27
2022-09-07T20:06:39.085Z,22.26
2022-09-07T20:09:06.334Z,22.30
2022-09-07T20:11:33.021Z,22.29
2022-09-07T20:13:59.675Z,22.19
2022-09-07T20:16:27.961Z,22.21
2022-09-07T20:18:55.160Z,22.06
2022-09-07T20:21:23.548Z,22.04
2022-09-07T20:23:50.597Z,22.03
2022-09-07T20:26:18.792Z,21.88
2022-09-07T20:29:01.785Z,21.85
2022-09-07T20:31:37.518Z,21.79
2022-09-07T20:34:04.609Z,21.72
2022-09-07T20:36:32.104Z,21.69
2022-09-07T20:38:58.738Z,21.76
2022-09-07T20:41:31.250Z,21.67
2022-09-07T20:43:59.260Z,21.70
2022-09-07T20:46:26.637Z,21.68
2022-09-07T20:48:53.261Z,21.68
2022-09-07T20:51:21.204Z,21.70
2022-09-07T20:53:48.581Z,21.68
2022-09-07T20:56:17.715Z,21.67
2022-09-07T20:58:45.976Z,21.60
2022-09-07T21:01:14.888Z,21.63
2022-09-07T21:03:49.094Z,21.23
2022-09-07T21:06:16.455Z,21.15
2022-09-07T21:08:44.507Z,21.06
2022-09-07T21:11:15.117Z,21.06
2022-09-07T21:13:42.034Z,21.03
2022-09-07T21:16:12.177Z,21.30
2022-09-07T21:18:39.888Z,21.44
2022-09-07T21:21:21.891Z,21.47
2022-09-07T21:23:48.782Z,21.45
2022-09-07T21:26:20.214Z,21.49
2022-09-07T21:28:46.886Z,21.53
2022-09-07T21:31:13.479Z,21.55
2022-09-07T21:33:40.142Z,21.54
2022-09-07T21:36:12.188Z,21.59
2022-09-07T21:38:40.614Z,21.64
2022-09-07T21:41:13.450Z,21.55
2022-09-07T21:43:40.576Z,21.55
2022-09-07T21:46:15.932Z,21.47
2022-09-07T21:48:43.275Z,21.42
2022-09-07T21:51:10.023Z,21.57
2022-09-07T21:53:36.648Z,21.56
2022-09-07T21:56:05.607Z,21.56
2022-09-07T21:58:32.866Z,21.59
2022-09-07T22:01:00.750Z,21.63
2022-09-07T22:03:27.436Z,21.65
2022-09-07T22:05:54.089Z,21.66
2022-09-07T22:08:20.740Z,21.66
2022-09-07T22:10:47.309Z,21.71
2022-09-07T22:13:13.784Z,21.75
2022-09-07T22:15:41.529Z,21.68
2022-09-07T22:18:11.705Z,21.60
2022-09-07T22:20:38.256Z,21.58
2022-09-07T22:23:05.329Z,21.50
2022-09-07T22:25:32.548Z,21.39
2022-09-07T22:27:59.336Z,21.35
2022-09-07T22:30:25.920Z,21.34
2022-09-07T22:32:52.480Z,21.30
2022-09-07T22:35:19.702Z,21.28
2022-09-07T22:37:46.434Z,21.17
2022-09-07T22:40:14.759Z,21.15
2022-09-07T22:42:41.874Z,21.19
2022-09-07T22:45:08.911Z,21.04
2022-09-07T22:47:35.459Z,21.01
2022-09-07T22:50:02.129Z,20.91
2022-09-07T22:52:28.692Z,20.92
2022-09-07T22:54:55.212Z,20.95
2022-09-07T22:57:22.015Z,20.97
2022-09-07T22:59:48.634Z,20.97
2022-09-07T23:02:15.115Z,21.04
2022-09-07T23:04:42.099Z,21.06
2022-09-07T23:07:08.635Z,21.05
2022-09-07T23:09:35.505Z,20.92
2022-09-07T23:12:02.227Z,20.94
2022-09-07T23:14:28.989Z,20.86
2022-09-07T23:16:55.478Z,20.83
2022-09-07T23:19:22.193Z,20.79
2022-09-07T23:21:49.109Z,20.79
2022-09-07T23:24:17.428Z,20.67
2022-09-07T23:26:44.443Z,20.60
2022-09-07T23:29:12.687Z,20.69
2022-09-07T23:31:40.166Z,20.74
2022-09-07T23:34:06.634Z,20.83
2022-09-07T23:36:33.264Z,20.56
2022-09-07T23:39:00.105Z,20.52
2022-09-07T23:41:27.319Z,20.74
2022-09-07T23:43:54.657Z,20.91
2022-09-07T23:46:21.859Z,20.93
2022-09-07T23:48:48.774Z,21.08
2022-09-07T23:51:19.922Z,21.09
2022-09-07T23:53:49.792Z,21.11
2022-09-07T23:56:16.487Z,21.15
2022-09-07T23:58:43.682Z,21.17
